sensor_id;sensor_type;location;lat;lon;timestamp;pressure;altitude;pressure_sealevel;temperature;humidity
60061;BME280;45933;51.336;12.612;2023-08-31T00:00:48;98998.00;;;17.24;57.81
60061;BME280;45933;51.336;12.612;2023-08-31T00:03:21;99003.31;;;17.23;58.41
60061;BME280;45933;51.336;12.612;2023-08-31T00:05:49;98994.66;;;17.21;57.83
60061;BME280;45933;51.336;12.612;2023-08-31T00:08:16;98988.44;;;17.22;57.82
60061;BME280;45933;51.336;12.612;2023-08-31T00:10:42;98994.09;;;17.14;59.16
60061;BME280;45933;51.336;12.612;2023-08-31T00:13:08;98979.22;;;17.13;58.68
60061;BME280;45933;51.336;12.612;2023-08-31T00:15:33;98973.31;;;17.08;58.33
60061;BME280;45933;51.336;12.612;2023-08-31T00:18:00;98979.59;;;17.06;58.62
60061;BME280;45933;51.336;12.612;2023-08-31T00:20:26;98991.28;;;17.00;59.15
60061;BME280;45933;51.336;12.612;2023-08-31T00:22:52;98980.00;;;16.98;58.80
60061;BME280;45933;51.336;12.612;2023-08-31T00:25:17;98968.59;;;16.97;58.37
60061;BME280;45933;51.336;12.612;2023-08-31T00:27:43;98956.84;;;16.87;59.25
60061;BME280;45933;51.336;12.612;2023-08-31T00:30:11;98954.03;;;16.90;59.46
60061;BME280;45933;51.336;12.612;2023-08-31T00:32:42;98986.78;;;16.85;59.35
60061;BME280;45933;51.336;12.612;2023-08-31T00:35:08;98989.50;;;16.83;59.69
60061;BME280;45933;51.336;12.612;2023-08-31T00:37:34;99000.31;;;16.77;60.07
60061;BME280;45933;51.336;12.612;2023-08-31T00:39:59;98995.28;;;16.72;59.70
60061;BME280;45933;51.336;12.612;2023-08-31T00:42:25;98987.47;;;16.69;59.82
60061;BME280;45933;51.336;12.612;2023-08-31T00:44:51;98985.88;;;16.67;59.72
60061;BME280;45933;51.336;12.612;2023-08-31T00:47:16;98990.28;;;16.66;59.83
60061;BME280;45933;51.336;12.612;2023-08-31T00:49:42;98985.16;;;16.63;59.98
60061;BME280;45933;51.336;12.612;2023-08-31T00:52:08;98998.22;;;16.65;59.80
60061;BME280;45933;51.336;12.612;2023-08-31T00:54:34;98998.44;;;16.60;59.98
60061;BME280;45933;51.336;12.612;2023-08-31T00:56:59;99001.22;;;16.57;59.94
60061;BME280;45933;51.336;12.612;2023-08-31T00:59:25;99009.41;;;16.51;60.29
60061;BME280;45933;51.336;12.612;2023-08-31T01:02:01;99011.75;;;16.57;60.01
60061;BME280;45933;51.336;12.612;2023-08-31T01:04:58;99020.41;;;16.59;59.71
60061;BME280;45933;51.336;12.612;2023-08-31T01:13:25;99025.09;;;16.34;60.27
60061;BME280;45933;51.336;12.612;2023-08-31T01:15:56;99043.59;;;16.32;60.41
60061;BME280;45933;51.336;12.612;2023-08-31T01:18:25;99044.06;;;16.21;61.11
60061;BME280;45933;51.336;12.612;2023-08-31T01:23:52;99043.88;;;16.26;60.20
60061;BME280;45933;51.336;12.612;2023-08-31T01:26:19;99042.66;;;16.14;60.35
60061;BME280;45933;51.336;12.612;2023-08-31T01:28:44;99047.09;;;16.12;60.74
60061;BME280;45933;51.336;12.612;2023-08-31T01:31:09;99045.47;;;16.10;60.59
60061;BME280;45933;51.336;12.612;2023-08-31T01:33:38;99038.66;;;16.06;61.18
60061;BME280;45933;51.336;12.612;2023-08-31T01:36:08;99031.69;;;16.05;60.53
60061;BME280;45933;51.336;12.612;2023-08-31T01:38:38;99024.94;;;15.99;60.44
60061;BME280;45933;51.336;12.612;2023-08-31T01:41:07;99037.34;;;15.95;60.77
60061;BME280;45933;51.336;12.612;2023-08-31T01:43:36;99033.13;;;15.91;60.33
60061;BME280;45933;51.336;12.612;2023-08-31T01:46:01;99035.19;;;15.85;60.94
60061;BME280;45933;51.336;12.612;2023-08-31T01:48:27;99036.97;;;15.84;60.50
60061;BME280;45933;51.336;12.612;2023-08-31T01:50:53;99044.28;;;15.78;60.93
60061;BME280;45933;51.336;12.612;2023-08-31T01:53:18;99039.97;;;15.75;61.42
60061;BME280;45933;51.336;12.612;2023-08-31T01:55:43;99026.00;;;15.75;61.53
60061;BME280;45933;51.336;12.612;2023-08-31T01:58:09;99032.09;;;15.75;61.34
60061;BME280;45933;51.336;12.612;2023-08-31T02:00:34;99036.69;;;15.70;61.83
60061;BME280;45933;51.336;12.612;2023-08-31T02:03:01;99035.00;;;15.69;62.29
60061;BME280;45933;51.336;12.612;2023-08-31T02:05:26;99040.13;;;15.72;61.83
60061;BME280;45933;51.336;12.612;2023-08-31T02:07:52;99028.63;;;15.75;61.48
60061;BME280;45933;51.336;12.612;2023-08-31T02:10:17;99028.63;;;15.75;61.34
60061;BME280;45933;51.336;12.612;2023-08-31T02:12:43;99023.44;;;15.73;61.09
60061;BME280;45933;51.336;12.612;2023-08-31T02:15:08;99036.66;;;15.72;61.49
60061;BME280;45933;51.336;12.612;2023-08-31T02:17:34;99043.88;;;15.66;61.79
60061;BME280;45933;51.336;12.612;2023-08-31T02:20:00;99046.56;;;15.65;61.78
60061;BME280;45933;51.336;12.612;2023-08-31T02:22:26;99042.22;;;15.64;61.98
60061;BME280;45933;51.336;12.612;2023-08-31T02:24:52;99056.22;;;15.64;61.35
60061;BME280;45933;51.336;12.612;2023-08-31T02:27:17;99054.50;;;15.63;61.57
60061;BME280;45933;51.336;12.612;2023-08-31T02:29:43;99058.94;;;15.61;61.81
60061;BME280;45933;51.336;12.612;2023-08-31T02:32:08;99055.41;;;15.62;61.09
60061;BME280;45933;51.336;12.612;2023-08-31T02:34:34;99052.09;;;15.57;61.76
60061;BME280;45933;51.336;12.612;2023-08-31T02:36:59;99053.94;;;15.55;61.58
60061;BME280;45933;51.336;12.612;2023-08-31T02:39:24;99065.53;;;15.50;61.84
60061;BME280;45933;51.336;12.612;2023-08-31T02:41:50;99059.31;;;15.52;61.83
60061;BME280;45933;51.336;12.612;2023-08-31T02:44:15;99061.22;;;15.49;61.72
60061;BME280;45933;51.336;12.612;2023-08-31T02:46:41;99063.00;;;15.48;61.91
60061;BME280;45933;51.336;12.612;2023-08-31T02:49:06;99069.16;;;15.47;62.00
60061;BME280;45933;51.336;12.612;2023-08-31T02:51:31;99075.38;;;15.44;61.98
60061;BME280;45933;51.336;12.612;2023-08-31T02:53:57;99065.69;;;15.47;61.40
60061;BME280;45933;51.336;12.612;2023-08-31T02:56:22;99074.59;;;15.42;61.75
60061;BME280;45933;51.336;12.612;2023-08-31T02:58:48;99073.75;;;15.42;61.79
60061;BME280;45933;51.336;12.612;2023-08-31T03:01:14;99085.38;;;15.36;62.11
60061;BME280;45933;51.336;12.612;2023-08-31T03:03:40;99086.41;;;15.32;62.23
60061;BME280;45933;51.336;12.612;2023-08-31T03:06:07;99089.28;;;15.26;62.61
60061;BME280;45933;51.336;12.612;2023-08-31T03:08:33;99085.66;;;15.29;62.17
60061;BME280;45933;51.336;12.612;2023-08-31T03:10:58;99091.06;;;15.26;62.26
60061;BME280;45933;51.336;12.612;2023-08-31T03:13:24;99091.97;;;15.25;62.65
60061;BME280;45933;51.336;12.612;2023-08-31T03:15:50;99089.47;;;15.22;62.56
60061;BME280;45933;51.336;12.612;2023-08-31T03:18:15;99085.22;;;15.19;62.85
60061;BME280;45933;51.336;12.612;2023-08-31T03:20:40;99092.16;;;15.20;62.71
60061;BME280;45933;51.336;12.612;2023-08-31T03:23:05;99087.88;;;15.17;63.02
60061;BME280;45933;51.336;12.612;2023-08-31T03:25:31;99093.09;;;15.19;62.78
60061;BME280;45933;51.336;12.612;2023-08-31T03:27:56;99093.19;;;15.16;63.06
60061;BME280;45933;51.336;12.612;2023-08-31T03:30:21;99105.41;;;15.17;63.25
60061;BME280;45933;51.336;12.612;2023-08-31T03:32:46;99087.94;;;15.16;63.11
60061;BME280;45933;51.336;12.612;2023-08-31T03:35:12;99104.53;;;15.16;63.10
60061;BME280;45933;51.336;12.612;2023-08-31T03:37:37;99103.75;;;15.14;63.37
60061;BME280;45933;51.336;12.612;2023-08-31T03:40:03;99104.53;;;15.16;63.16
60061;BME280;45933;51.336;12.612;2023-08-31T03:42:31;99097.53;;;15.17;63.39
60061;BME280;45933;51.336;12.612;2023-08-31T03:44:56;99103.63;;;15.17;63.58
60061;BME280;45933;51.336;12.612;2023-08-31T03:47:21;99102.78;;;15.17;63.85
60061;BME280;45933;51.336;12.612;2023-08-31T03:49:47;99104.47;;;15.18;63.94
60061;BME280;45933;51.336;12.612;2023-08-31T03:52:12;99103.50;;;15.21;63.85
60061;BME280;45933;51.336;12.612;2023-08-31T03:54:37;99107.78;;;15.23;63.92
60061;BME280;45933;51.336;12.612;2023-08-31T03:57:02;99112.06;;;15.26;63.99
60061;BME280;45933;51.336;12.612;2023-08-31T03:59:28;99107.56;;;15.29;63.41
60061;BME280;45933;51.336;12.612;2023-08-31T04:01:53;99107.59;;;15.28;63.84
60061;BME280;45933;51.336;12.612;2023-08-31T04:04:18;99111.88;;;15.30;63.89
60061;BME280;45933;51.336;12.612;2023-08-31T04:06:44;99113.59;;;15.31;64.00
60061;BME280;45933;51.336;12.612;2023-08-31T04:09:10;99112.59;;;15.34;63.93
60061;BME280;45933;51.336;12.612;2023-08-31T04:11:35;99111.50;;;15.39;63.48
60061;BME280;45933;51.336;12.612;2023-08-31T04:14:00;99119.31;;;15.41;63.62
60061;BME280;45933;51.336;12.612;2023-08-31T04:16:26;99129.00;;;15.39;63.66
60061;BME280;45933;51.336;12.612;2023-08-31T04:18:51;99117.56;;;15.41;63.85
60061;BME280;45933;51.336;12.612;2023-08-31T04:21:17;99121.75;;;15.46;63.71
60061;BME280;45933;51.336;12.612;2023-08-31T04:23:43;99124.44;;;15.44;63.57
60061;BME280;45933;51.336;12.612;2023-08-31T04:26:10;99129.56;;;15.47;63.50
60061;BME280;45933;51.336;12.612;2023-08-31T04:28:35;99136.84;;;15.40;64.01
60061;BME280;45933;51.336;12.612;2023-08-31T04:31:00;99133.38;;;15.40;63.84
60061;BME280;45933;51.336;12.612;2023-08-31T04:33:26;99134.09;;;15.43;63.68
60061;BME280;45933;51.336;12.612;2023-08-31T04:35:51;99137.63;;;15.42;63.82
60061;BME280;45933;51.336;12.612;2023-08-31T04:38:17;99136.69;;;15.45;63.72
60061;BME280;45933;51.336;12.612;2023-08-31T04:40:42;99141.94;;;15.45;63.96
60061;BME280;45933;51.336;12.612;2023-08-31T04:43:08;99143.56;;;15.48;63.50
60061;BME280;45933;51.336;12.612;2023-08-31T04:45:34;99147.09;;;15.47;63.71
60061;BME280;45933;51.336;12.612;2023-08-31T04:47:59;99149.66;;;15.48;63.46
60061;BME280;45933;51.336;12.612;2023-08-31T04:50:25;99158.34;;;15.50;63.52
60061;BME280;45933;51.336;12.612;2023-08-31T04:52:50;99165.34;;;15.50;63.61
60061;BME280;45933;51.336;12.612;2023-08-31T04:55:16;99165.41;;;15.48;63.61
60061;BME280;45933;51.336;12.612;2023-08-31T04:57:41;99162.63;;;15.53;63.34
60061;BME280;45933;51.336;12.612;2023-08-31T05:00:07;99162.72;;;15.50;63.80
60061;BME280;45933;51.336;12.612;2023-08-31T05:02:34;99174.97;;;15.51;63.73
60061;BME280;45933;51.336;12.612;2023-08-31T05:04:59;99175.63;;;15.56;63.73
60061;BME280;45933;51.336;12.612;2023-08-31T05:07:25;99173.13;;;15.53;63.72
60061;BME280;45933;51.336;12.612;2023-08-31T05:09:50;99174.72;;;15.57;63.46
60061;BME280;45933;51.336;12.612;2023-08-31T05:12:15;99183.31;;;15.60;63.36
60061;BME280;45933;51.336;12.612;2023-08-31T05:14:42;99188.56;;;15.60;63.40
60061;BME280;45933;51.336;12.612;2023-08-31T05:17:08;99188.53;;;15.62;63.48
60061;BME280;45933;51.336;12.612;2023-08-31T05:19:33;99202.47;;;15.64;63.40
60061;BME280;45933;51.336;12.612;2023-08-31T05:21:58;99199.22;;;15.57;63.95
60061;BME280;45933;51.336;12.612;2023-08-31T05:24:23;99192.81;;;15.64;63.44
60061;BME280;45933;51.336;12.612;2023-08-31T05:26:49;99197.97;;;15.67;63.09
60061;BME280;45933;51.336;12.612;2023-08-31T05:29:15;99201.63;;;15.63;63.52
60061;BME280;45933;51.336;12.612;2023-08-31T05:31:40;99202.34;;;15.67;63.26
60061;BME280;45933;51.336;12.612;2023-08-31T05:34:05;99205.69;;;15.71;63.23
60061;BME280;45933;51.336;12.612;2023-08-31T05:36:31;99203.22;;;15.67;63.15
60061;BME280;45933;51.336;12.612;2023-08-31T05:38:56;99209.16;;;15.71;63.18
60061;BME280;45933;51.336;12.612;2023-08-31T05:41:21;99209.13;;;15.73;63.22
60061;BME280;45933;51.336;12.612;2023-08-31T05:43:47;99211.56;;;15.77;63.14
60061;BME280;45933;51.336;12.612;2023-08-31T05:46:12;99212.28;;;15.81;62.80
60061;BME280;45933;51.336;12.612;2023-08-31T05:48:38;99216.63;;;15.82;62.63
60061;BME280;45933;51.336;12.612;2023-08-31T05:51:03;99216.69;;;15.80;62.94
60061;BME280;45933;51.336;12.612;2023-08-31T05:53:30;99224.47;;;15.83;62.94
60061;BME280;45933;51.336;12.612;2023-08-31T05:55:57;99226.94;;;15.86;62.66
60061;BME280;45933;51.336;12.612;2023-08-31T05:58:35;99223.22;;;15.92;62.36
60061;BME280;45933;51.336;12.612;2023-08-31T06:01:01;99224.09;;;15.92;62.26
60061;BME280;45933;51.336;12.612;2023-08-31T06:03:26;99232.03;;;15.91;62.13
60061;BME280;45933;51.336;12.612;2023-08-31T06:05:52;99231.16;;;15.90;62.20
60061;BME280;45933;51.336;12.612;2023-08-31T06:08:17;99230.25;;;15.91;62.23
60061;BME280;45933;51.336;12.612;2023-08-31T06:10:42;99224.22;;;15.89;62.41
60061;BME280;45933;51.336;12.612;2023-08-31T06:13:08;99231.91;;;15.94;62.19
60061;BME280;45933;51.336;12.612;2023-08-31T06:15:33;99227.44;;;15.96;62.08
60061;BME280;45933;51.336;12.612;2023-08-31T06:17:58;99230.88;;;15.98;61.95
60061;BME280;45933;51.336;12.612;2023-08-31T06:20:24;99231.53;;;16.03;61.86
60061;BME280;45933;51.336;12.612;2023-08-31T06:22:49;99237.50;;;16.07;61.90
60061;BME280;45933;51.336;12.612;2023-08-31T06:25:14;99232.63;;;15.98;61.48
60061;BME280;45933;51.336;12.612;2023-08-31T06:27:42;99238.50;;;16.04;61.67
60061;BME280;45933;51.336;12.612;2023-08-31T06:30:08;99236.84;;;16.02;61.66
60061;BME280;45933;51.336;12.612;2023-08-31T06:32:33;99239.22;;;16.08;61.68
60061;BME280;45933;51.336;12.612;2023-08-31T06:34:59;99249.59;;;16.11;61.52
60061;BME280;45933;51.336;12.612;2023-08-31T06:37:24;99245.88;;;16.16;61.63
60061;BME280;45933;51.336;12.612;2023-08-31T06:39:49;99235.44;;;16.15;61.93
60061;BME280;45933;51.336;12.612;2023-08-31T06:42:15;99248.19;;;16.24;61.51
60061;BME280;45933;51.336;12.612;2023-08-31T06:44:40;99259.69;;;16.21;61.23
60061;BME280;45933;51.336;12.612;2023-08-31T06:47:05;99242.69;;;16.30;61.16
60061;BME280;45933;51.336;12.612;2023-08-31T06:49:31;99253.13;;;16.32;60.98
60061;BME280;45933;51.336;12.612;2023-08-31T06:51:59;99257.38;;;16.34;60.50
60061;BME280;45933;51.336;12.612;2023-08-31T06:54:24;99266.38;;;16.29;59.91
60061;BME280;45933;51.336;12.612;2023-08-31T06:56:49;99263.56;;;16.33;59.69
60061;BME280;45933;51.336;12.612;2023-08-31T06:59:14;99258.94;;;16.40;59.25
60061;BME280;45933;51.336;12.612;2023-08-31T07:01:40;99262.91;;;16.48;59.75
60061;BME280;45933;51.336;12.612;2023-08-31T07:04:05;99261.03;;;16.52;58.89
60061;BME280;45933;51.336;12.612;2023-08-31T07:06:33;99262.34;;;16.62;59.35
60061;BME280;45933;51.336;12.612;2023-08-31T07:08:58;99268.38;;;16.64;58.84
60061;BME280;45933;51.336;12.612;2023-08-31T07:11:24;99269.88;;;16.70;58.56
60061;BME280;45933;51.336;12.612;2023-08-31T07:13:50;99264.34;;;16.78;58.62
60061;BME280;45933;51.336;12.612;2023-08-31T07:16:15;99268.47;;;16.83;58.64
60061;BME280;45933;51.336;12.612;2023-08-31T07:18:41;99266.50;;;16.88;58.11
60061;BME280;45933;51.336;12.612;2023-08-31T07:21:06;99262.72;;;16.94;57.77
60061;BME280;45933;51.336;12.612;2023-08-31T07:23:31;99272.97;;;17.00;56.71
60061;BME280;45933;51.336;12.612;2023-08-31T07:25:57;99273.09;;;16.97;57.08
60061;BME280;45933;51.336;12.612;2023-08-31T07:28:26;99283.72;;;16.95;56.31
60061;BME280;45933;51.336;12.612;2023-08-31T07:31:04;99282.03;;;17.13;56.29
60061;BME280;45933;51.336;12.612;2023-08-31T07:33:34;99281.19;;;17.13;56.13
60061;BME280;45933;51.336;12.612;2023-08-31T07:36:01;99274.94;;;17.15;56.06
60061;BME280;45933;51.336;12.612;2023-08-31T07:38:27;99275.56;;;17.20;55.91
60061;BME280;45933;51.336;12.612;2023-08-31T07:40:53;99283.06;;;17.30;56.07
60061;BME280;45933;51.336;12.612;2023-08-31T07:43:18;99280.34;;;17.31;55.58
60061;BME280;45933;51.336;12.612;2023-08-31T07:45:44;99284.56;;;17.35;55.49
60061;BME280;45933;51.336;12.612;2023-08-31T07:48:09;99289.56;;;17.41;55.17
60061;BME280;45933;51.336;12.612;2023-08-31T07:50:41;99302.91;;;17.56;54.80
60061;BME280;45933;51.336;12.612;2023-08-31T07:53:07;99302.41;;;17.66;56.18
60061;BME280;45933;51.336;12.612;2023-08-31T07:55:33;99312.75;;;17.71;54.73
60061;BME280;45933;51.336;12.612;2023-08-31T07:58:01;99320.41;;;17.77;54.24
60061;BME280;45933;51.336;12.612;2023-08-31T08:00:29;99332.94;;;17.91;55.05
60061;BME280;45933;51.336;12.612;2023-08-31T08:02:55;99320.91;;;17.85;53.55
60061;BME280;45933;51.336;12.612;2023-08-31T08:05:41;99321.31;;;17.95;53.11
60061;BME280;45933;51.336;12.612;2023-08-31T08:08:06;99325.78;;;18.12;53.79
60061;BME280;45933;51.336;12.612;2023-08-31T08:10:32;99320.28;;;18.16;53.20
60061;BME280;45933;51.336;12.612;2023-08-31T08:12:57;99328.06;;;18.19;52.43
60061;BME280;45933;51.336;12.612;2023-08-31T08:15:23;99325.97;;;18.26;52.84
60061;BME280;45933;51.336;12.612;2023-08-31T08:17:49;99323.88;;;18.33;52.13
60061;BME280;45933;51.336;12.612;2023-08-31T08:20:14;99327.13;;;18.38;51.96
60061;BME280;45933;51.336;12.612;2023-08-31T08:22:39;99328.31;;;18.49;53.06
60061;BME280;45933;51.336;12.612;2023-08-31T08:25:05;99319.09;;;18.58;52.02
60061;BME280;45933;51.336;12.612;2023-08-31T08:27:31;99326.50;;;18.69;52.46
60061;BME280;45933;51.336;12.612;2023-08-31T08:29:58;99329.13;;;18.86;52.62
60061;BME280;45933;51.336;12.612;2023-08-31T08:32:23;99327.16;;;19.07;52.92
60061;BME280;45933;51.336;12.612;2023-08-31T08:34:50;99320.06;;;19.25;51.50
60061;BME280;45933;51.336;12.612;2023-08-31T08:37:15;99332.84;;;19.32;48.43
60061;BME280;45933;51.336;12.612;2023-08-31T08:39:41;99323.66;;;19.40;48.27
60061;BME280;45933;51.336;12.612;2023-08-31T08:42:06;99319.81;;;19.45;47.69
60061;BME280;45933;51.336;12.612;2023-08-31T08:44:34;99318.81;;;19.48;48.55
60061;BME280;45933;51.336;12.612;2023-08-31T08:47:01;99328.53;;;19.47;48.60
60061;BME280;45933;51.336;12.612;2023-08-31T08:49:28;99330.16;;;19.50;47.93
60061;BME280;45933;51.336;12.612;2023-08-31T08:51:56;99324.63;;;19.54;48.93
60061;BME280;45933;51.336;12.612;2023-08-31T08:54:24;99318.72;;;19.49;48.23
60061;BME280;45933;51.336;12.612;2023-08-31T08:56:50;99332.53;;;19.39;48.32
60061;BME280;45933;51.336;12.612;2023-08-31T08:59:16;99330.22;;;19.32;48.96
60061;BME280;45933;51.336;12.612;2023-08-31T09:01:42;99337.69;;;19.24;48.77
60061;BME280;45933;51.336;12.612;2023-08-31T09:04:09;99338.09;;;19.17;48.71
60061;BME280;45933;51.336;12.612;2023-08-31T09:06:34;99342.75;;;19.12;49.08
60061;BME280;45933;51.336;12.612;2023-08-31T09:08:59;99343.84;;;19.07;49.27
60061;BME280;45933;51.336;12.612;2023-08-31T09:11:25;99347.75;;;19.00;49.75
60061;BME280;45933;51.336;12.612;2023-08-31T09:13:51;99350.47;;;18.99;49.40
60061;BME280;45933;51.336;12.612;2023-08-31T09:16:27;99344.09;;;19.03;50.16
60061;BME280;45933;51.336;12.612;2023-08-31T09:18:54;99354.03;;;18.98;50.36
60061;BME280;45933;51.336;12.612;2023-08-31T09:21:19;99345.72;;;19.05;50.73
60061;BME280;45933;51.336;12.612;2023-08-31T09:24:08;99355.50;;;19.21;50.27
60061;BME280;45933;51.336;12.612;2023-08-31T09:26:37;99342.34;;;19.19;48.98
60061;BME280;45933;51.336;12.612;2023-08-31T09:29:05;99348.03;;;19.12;49.32
60061;BME280;45933;51.336;12.612;2023-08-31T09:31:30;99359.69;;;19.07;48.86
60061;BME280;45933;51.336;12.612;2023-08-31T09:33:56;99374.63;;;18.91;48.95
60061;BME280;45933;51.336;12.612;2023-08-31T09:36:21;99372.53;;;18.80;49.35
60061;BME280;45933;51.336;12.612;2023-08-31T09:38:47;99367.88;;;18.68;50.20
60061;BME280;45933;51.336;12.612;2023-08-31T09:41:13;99383.50;;;18.54;51.22
60061;BME280;45933;51.336;12.612;2023-08-31T09:43:40;99378.91;;;18.40;51.69
60061;BME280;45933;51.336;12.612;2023-08-31T09:46:06;99389.25;;;18.09;53.74
60061;BME280;45933;51.336;12.612;2023-08-31T09:48:31;99376.19;;;18.06;53.36
60061;BME280;45933;51.336;12.612;2023-08-31T09:50:57;99380.06;;;17.98;52.92
60061;BME280;45933;51.336;12.612;2023-08-31T09:53:29;99372.25;;;17.76;52.74
60061;BME280;45933;51.336;12.612;2023-08-31T09:55:54;99377.78;;;17.70;52.70
60061;BME280;45933;51.336;12.612;2023-08-31T09:58:21;99371.56;;;17.73;53.23
60061;BME280;45933;51.336;12.612;2023-08-31T10:00:49;99371.53;;;17.92;54.39
60061;BME280;45933;51.336;12.612;2023-08-31T10:03:15;99373.69;;;18.02;52.43
60061;BME280;45933;51.336;12.612;2023-08-31T10:05:42;99362.97;;;18.24;53.36
60061;BME280;45933;51.336;12.612;2023-08-31T10:08:08;99368.53;;;18.54;51.30
60061;BME280;45933;51.336;12.612;2023-08-31T10:10:34;99366.72;;;18.91;50.41
60061;BME280;45933;51.336;12.612;2023-08-31T10:13:01;99358.91;;;19.23;49.57
60061;BME280;45933;51.336;12.612;2023-08-31T10:15:31;99355.97;;;19.62;48.22
60061;BME280;45933;51.336;12.612;2023-08-31T10:18:02;99350.78;;;19.92;47.26
60061;BME280;45933;51.336;12.612;2023-08-31T10:20:28;99353.94;;;20.30;47.00
60061;BME280;45933;51.336;12.612;2023-08-31T10:22:58;99350.06;;;20.52;44.49
60061;BME280;45933;51.336;12.612;2023-08-31T10:25:24;99346.69;;;20.94;45.86
60061;BME280;45933;51.336;12.612;2023-08-31T10:27:51;99358.00;;;21.26;44.24
60061;BME280;45933;51.336;12.612;2023-08-31T10:30:25;99353.50;;;21.57;42.91
60061;BME280;45933;51.336;12.612;2023-08-31T10:36:00;99351.59;;;22.14;43.35
60061;BME280;45933;51.336;12.612;2023-08-31T10:38:31;99343.09;;;22.36;42.35
60061;BME280;45933;51.336;12.612;2023-08-31T10:43:54;99345.31;;;22.69;42.63
60061;BME280;45933;51.336;12.612;2023-08-31T10:46:34;99334.25;;;22.63;42.09
60061;BME280;45933;51.336;12.612;2023-08-31T10:49:12;99337.13;;;22.73;42.09
60061;BME280;45933;51.336;12.612;2023-08-31T10:51:41;99343.03;;;22.90;41.67
60061;BME280;45933;51.336;12.612;2023-08-31T10:54:33;99342.22;;;23.15;41.19
60061;BME280;45933;51.336;12.612;2023-08-31T10:57:04;99320.53;;;23.21;41.79
60061;BME280;45933;51.336;12.612;2023-08-31T10:59:47;99323.06;;;23.23;41.58
60061;BME280;45933;51.336;12.612;2023-08-31T11:02:35;99314.78;;;23.28;41.11
60061;BME280;45933;51.336;12.612;2023-08-31T11:07:31;99318.31;;;22.76;40.68
60061;BME280;45933;51.336;12.612;2023-08-31T11:12:34;99323.31;;;22.67;41.04
60061;BME280;45933;51.336;12.612;2023-08-31T11:15:00;99313.31;;;22.58;40.99
60061;BME280;45933;51.336;12.612;2023-08-31T11:17:27;99321.16;;;22.47;40.75
60061;BME280;45933;51.336;12.612;2023-08-31T11:19:52;99307.94;;;22.33;41.23
60061;BME280;45933;51.336;12.612;2023-08-31T11:22:18;99317.09;;;22.14;40.85
60061;BME280;45933;51.336;12.612;2023-08-31T11:24:43;99310.75;;;22.03;40.53
60061;BME280;45933;51.336;12.612;2023-08-31T11:27:09;99310.34;;;22.09;42.09
60061;BME280;45933;51.336;12.612;2023-08-31T11:29:38;99311.00;;;22.27;42.86
60061;BME280;45933;51.336;12.612;2023-08-31T11:32:07;99305.41;;;22.44;41.00
60061;BME280;45933;51.336;12.612;2023-08-31T11:34:33;99308.50;;;22.51;39.28
60061;BME280;45933;51.336;12.612;2023-08-31T11:36:58;99301.13;;;22.81;39.37
60061;BME280;45933;51.336;12.612;2023-08-31T11:39:23;99310.00;;;22.94;38.01
60061;BME280;45933;51.336;12.612;2023-08-31T11:41:49;99309.13;;;23.19;37.95
60061;BME280;45933;51.336;12.612;2023-08-31T11:44:15;99302.13;;;23.31;38.08
60061;BME280;45933;51.336;12.612;2023-08-31T11:46:43;99298.13;;;23.49;37.04
60061;BME280;45933;51.336;12.612;2023-08-31T11:49:10;99292.72;;;23.64;37.01
60061;BME280;45933;51.336;12.612;2023-08-31T11:51:36;99295.13;;;23.80;36.85
60061;BME280;45933;51.336;12.612;2023-08-31T11:54:04;99303.72;;;23.83;35.28
60061;BME280;45933;51.336;12.612;2023-08-31T11:56:43;99315.50;;;24.05;35.11
60061;BME280;45933;51.336;12.612;2023-08-31T11:59:14;99296.78;;;24.17;34.07
60061;BME280;45933;51.336;12.612;2023-08-31T12:01:41;99299.44;;;24.17;33.88
60061;BME280;45933;51.336;12.612;2023-08-31T12:04:11;99295.09;;;24.40;34.55
60061;BME280;45933;51.336;12.612;2023-08-31T12:06:37;99292.47;;;24.51;33.59
60061;BME280;45933;51.336;12.612;2023-08-31T12:09:02;99299.19;;;24.68;33.18
60061;BME280;45933;51.336;12.612;2023-08-31T12:11:29;99296.09;;;24.86;33.13
60061;BME280;45933;51.336;12.612;2023-08-31T12:13:59;99287.59;;;24.92;31.79
60061;BME280;45933;51.336;12.612;2023-08-31T12:16:24;99277.78;;;25.03;32.94
60061;BME280;45933;51.336;12.612;2023-08-31T12:18:50;99315.25;;;24.91;31.28
60061;BME280;45933;51.336;12.612;2023-08-31T12:21:19;99303.25;;;24.96;31.17
60061;BME280;45933;51.336;12.612;2023-08-31T12:23:45;99287.09;;;24.87;31.68
60061;BME280;45933;51.336;12.612;2023-08-31T12:26:10;99286.47;;;24.72;30.62
60061;BME280;45933;51.336;12.612;2023-08-31T12:28:35;99296.56;;;24.80;31.22
60061;BME280;45933;51.336;12.612;2023-08-31T12:31:01;99278.50;;;24.83;31.46
60061;BME280;45933;51.336;12.612;2023-08-31T12:33:26;99288.06;;;24.74;31.05
60061;BME280;45933;51.336;12.612;2023-08-31T12:35:51;99284.44;;;24.87;31.12
60061;BME280;45933;51.336;12.612;2023-08-31T12:38:17;99274.41;;;24.90;31.18
60061;BME280;45933;51.336;12.612;2023-08-31T12:40:43;99284.81;;;25.04;30.94
60061;BME280;45933;51.336;12.612;2023-08-31T12:43:09;99283.47;;;24.99;29.89
60061;BME280;45933;51.336;12.612;2023-08-31T12:45:35;99293.97;;;25.13;30.67
60061;BME280;45933;51.336;12.612;2023-08-31T12:48:01;99283.00;;;24.94;28.86
60061;BME280;45933;51.336;12.612;2023-08-31T12:50:29;99311.44;;;25.17;29.40
60061;BME280;45933;51.336;12.612;2023-08-31T12:52:55;99289.59;;;25.23;30.32
60061;BME280;45933;51.336;12.612;2023-08-31T12:55:20;99291.66;;;25.20;29.32
60061;BME280;45933;51.336;12.612;2023-08-31T12:57:45;99294.94;;;25.23;29.64
60061;BME280;45933;51.336;12.612;2023-08-31T13:00:11;99311.06;;;25.22;29.76
60061;BME280;45933;51.336;12.612;2023-08-31T13:02:42;99308.03;;;25.15;30.27
60061;BME280;45933;51.336;12.612;2023-08-31T13:05:08;99303.44;;;25.17;30.56
60061;BME280;45933;51.336;12.612;2023-08-31T13:07:35;99296.28;;;25.07;29.41